createdAt,value
2023-03-18T00:00:16.760Z,5.93
2023-03-18T00:02:47.805Z,5.53
2023-03-18T00:05:19.117Z,6.90
2023-03-18T00:07:47.801Z,7.37
2023-03-18T00:10:16.791Z,7.17
2023-03-18T00:12:45.320Z,6.80
2023-03-18T00:15:16.240Z,6.97
2023-03-18T00:17:45.182Z,6.80
2023-03-18T00:20:17.102Z,6.30
2023-03-18T00:22:46.906Z,6.30
2023-03-18T00:25:16.426Z,6.10
2023-03-18T00:27:44.850Z,6.90
2023-03-18T00:30:14.071Z,6.30
2023-03-18T00:32:42.585Z,6.33
2023-03-18T00:35:12.248Z,6.60
2023-03-18T00:37:42.568Z,6.50
2023-03-18T00:40:17.425Z,6.57
2023-03-18T00:42:50.530Z,6.47
2023-03-18T00:45:19.420Z,5.97
2023-03-18T00:47:49.445Z,6.17
2023-03-18T00:50:18.334Z,5.57
2023-03-18T00:52:48.101Z,5.90
2023-03-18T00:55:16.652Z,5.93
2023-03-18T00:57:45.074Z,5.67
2023-03-18T01:00:17.110Z,5.63
2023-03-18T01:02:45.601Z,6.03
2023-03-18T01:05:14.725Z,5.70
2023-03-18T01:07:43.555Z,5.63
2023-03-18T01:10:14.606Z,5.93
2023-03-18T01:12:43.951Z,5.97
2023-03-18T01:15:14.733Z,5.47
2023-03-18T01:17:44.181Z,5.83
2023-03-18T01:20:15.014Z,6.13
2023-03-18T01:22:43.516Z,5.40
2023-03-18T01:25:15.860Z,8.97
2023-03-18T01:27:44.706Z,8.50
2023-03-18T01:30:14.464Z,8.33
2023-03-18T01:32:43.908Z,7.60
2023-03-18T01:35:13.346Z,5.90
2023-03-18T01:37:42.113Z,5.70
2023-03-18T01:40:14.439Z,5.30
2023-03-18T01:42:45.441Z,5.03
2023-03-18T01:45:19.451Z,5.10
2023-03-18T01:47:48.394Z,5.40
2023-03-18T01:50:18.684Z,4.73
2023-03-18T01:52:48.686Z,5.23
2023-03-18T01:55:20.856Z,5.13
2023-03-18T01:57:50.129Z,4.97
2023-03-18T02:00:20.148Z,5.13
2023-03-18T02:02:50.052Z,5.10
2023-03-18T02:05:21.070Z,5.37
2023-03-18T02:07:49.683Z,4.80
2023-03-18T02:10:21.761Z,5.50
2023-03-18T02:12:53.140Z,5.40
2023-03-18T02:15:23.337Z,5.00
2023-03-18T02:17:56.650Z,5.20
2023-03-18T02:20:42.220Z,5.00
2023-03-18T02:23:17.181Z,5.23
2023-03-18T02:25:53.344Z,5.37
2023-03-18T02:28:24.870Z,5.23
2023-03-18T02:30:55.704Z,4.77
2023-03-18T02:33:26.931Z,5.00
2023-03-18T02:35:59.289Z,4.57
2023-03-18T02:38:27.797Z,5.10
2023-03-18T02:40:56.284Z,4.70
2023-03-18T02:43:28.696Z,5.00
2023-03-18T02:46:07.103Z,5.10
2023-03-18T02:48:38.014Z,4.67
2023-03-18T02:51:07.384Z,4.53
2023-03-18T02:53:36.079Z,4.60
2023-03-18T02:56:04.699Z,4.70
2023-03-18T02:58:34.691Z,4.90
2023-03-18T03:01:03.330Z,5.03
2023-03-18T03:03:31.848Z,4.63
2023-03-18T03:06:00.958Z,4.90
2023-03-18T03:08:29.399Z,5.10
2023-03-18T03:10:58.193Z,5.20
2023-03-18T03:13:26.649Z,4.60
2023-03-18T03:15:56.641Z,5.00
2023-03-18T03:18:26.488Z,4.97
2023-03-18T03:20:54.932Z,5.10
2023-03-18T03:23:23.377Z,4.93
2023-03-18T03:25:51.882Z,4.80
2023-03-18T03:28:20.310Z,5.03
2023-03-18T03:30:49.527Z,5.17
2023-03-18T03:33:19.395Z,5.10
2023-03-18T03:35:47.877Z,4.67
2023-03-18T03:38:16.304Z,4.80
2023-03-18T03:40:45.555Z,4.67
2023-03-18T03:43:14.855Z,5.10
2023-03-18T03:45:45.073Z,4.63
2023-03-18T03:48:14.445Z,4.93
2023-03-18T03:50:44.274Z,4.60
2023-03-18T03:53:12.667Z,5.40
2023-03-18T03:55:41.306Z,5.30
2023-03-18T03:58:10.498Z,5.17
2023-03-18T04:00:38.938Z,4.70
2023-03-18T04:03:07.397Z,4.67
2023-03-18T04:05:35.808Z,4.80
2023-03-18T04:08:05.717Z,5.00
2023-03-18T04:10:36.607Z,5.30
2023-03-18T04:13:05.208Z,5.80
2023-03-18T04:15:33.701Z,5.40
2023-03-18T04:18:06.836Z,5.30
2023-03-18T04:20:36.654Z,5.53
2023-03-18T04:23:07.416Z,4.73
2023-03-18T04:25:36.329Z,5.67
2023-03-18T04:28:05.262Z,5.13
2023-03-18T04:30:33.858Z,5.03
2023-03-18T04:33:03.424Z,5.40
2023-03-18T04:35:32.268Z,4.70
2023-03-18T04:38:00.968Z,4.93
2023-03-18T04:40:31.229Z,4.70
2023-03-18T04:42:59.891Z,5.20
2023-03-18T04:45:29.486Z,6.87
2023-03-18T04:47:57.986Z,6.20
2023-03-18T04:50:26.405Z,5.73
2023-03-18T04:52:54.801Z,5.03
2023-03-18T04:55:23.978Z,5.40
2023-03-18T04:57:54.591Z,5.40
2023-03-18T05:00:23.704Z,5.53
2023-03-18T05:02:52.160Z,5.63
2023-03-18T05:05:21.177Z,4.90
2023-03-18T05:07:49.790Z,5.57
2023-03-18T05:10:18.902Z,5.17
2023-03-18T05:12:48.618Z,5.23
2023-03-18T05:15:18.663Z,5.83
2023-03-18T05:17:47.582Z,9.60
2023-03-18T05:20:16.150Z,9.30
2023-03-18T05:22:44.647Z,6.27
2023-03-18T05:25:13.131Z,5.80
2023-03-18T05:27:41.866Z,6.03
2023-03-18T05:30:12.453Z,5.57
2023-03-18T05:32:42.665Z,5.40
2023-03-18T05:35:11.684Z,9.47
2023-03-18T05:37:40.343Z,21.10
2023-03-18T05:40:11.703Z,15.53
2023-03-18T05:42:55.014Z,7.63
2023-03-18T05:45:24.764Z,7.10
2023-03-18T05:47:54.775Z,6.00
2023-03-18T05:50:30.219Z,16.27
2023-03-18T05:52:58.905Z,11.20
2023-03-18T05:55:28.431Z,10.47
2023-03-18T05:57:57.812Z,8.60
2023-03-18T06:00:28.674Z,8.00
2023-03-18T06:02:59.442Z,7.20
2023-03-18T06:05:28.696Z,6.37
2023-03-18T06:07:57.245Z,7.60
2023-03-18T06:10:26.406Z,8.50
2023-03-18T06:12:55.800Z,8.30
2023-03-18T06:15:25.694Z,8.53
2023-03-18T06:17:54.160Z,9.37
2023-03-18T06:20:24.386Z,10.83
2023-03-18T06:22:52.830Z,10.03
2023-03-18T06:25:22.312Z,10.67
2023-03-18T06:27:50.958Z,11.30
2023-03-18T06:30:19.709Z,8.53
2023-03-18T06:32:48.305Z,7.80
2023-03-18T06:35:17.129Z,9.60
2023-03-18T06:37:46.917Z,12.43
2023-03-18T06:40:15.751Z,16.67
2023-03-18T06:42:44.600Z,10.83
2023-03-18T06:45:13.843Z,8.40
2023-03-18T06:47:43.013Z,7.53
2023-03-18T06:50:13.630Z,7.57
2023-03-18T06:52:42.344Z,7.80
2023-03-18T06:55:12.301Z,7.60
2023-03-18T06:57:41.531Z,7.60
2023-03-18T07:00:11.619Z,8.30
2023-03-18T07:02:40.348Z,8.23
2023-03-18T07:05:09.691Z,8.10
2023-03-18T07:07:38.748Z,8.60
2023-03-18T07:10:09.283Z,7.50
2023-03-18T07:12:40.477Z,7.03
2023-03-18T07:15:11.642Z,7.20
2023-03-18T07:17:40.225Z,8.67
2023-03-18T07:20:09.550Z,6.67
2023-03-18T07:22:38.515Z,6.40
2023-03-18T07:25:07.869Z,6.73
2023-03-18T07:27:36.429Z,6.80
2023-03-18T07:30:09.479Z,6.77
2023-03-18T07:32:38.523Z,6.37
2023-03-18T07:35:08.330Z,7.00
2023-03-18T07:37:37.131Z,7.00
2023-03-18T07:40:06.303Z,6.60
2023-03-18T07:42:34.762Z,7.03
2023-03-18T07:45:03.455Z,8.63
2023-03-18T07:47:33.288Z,7.00
2023-03-18T07:50:04.356Z,6.00
2023-03-18T07:52:32.959Z,5.87
2023-03-18T07:55:01.817Z,6.20
2023-03-18T07:57:30.255Z,10.47
2023-03-18T07:59:58.754Z,6.50
2023-03-18T08:02:28.362Z,9.80
2023-03-18T08:04:58.889Z,6.07
2023-03-18T08:07:27.375Z,6.60
2023-03-18T08:09:55.909Z,6.33
2023-03-18T08:12:24.679Z,5.77
2023-03-18T08:14:53.255Z,5.93
2023-03-18T08:17:21.933Z,11.03
2023-03-18T08:19:51.090Z,6.57
2023-03-18T08:22:20.952Z,6.10
2023-03-18T08:24:49.554Z,6.20
2023-03-18T08:27:17.989Z,6.13
2023-03-18T08:29:46.925Z,6.13
2023-03-18T08:32:15.365Z,6.60
2023-03-18T08:34:44.014Z,6.10
2023-03-18T08:37:13.084Z,5.70
2023-03-18T08:39:44.667Z,5.90
2023-03-18T08:42:13.392Z,8.27
2023-03-18T08:44:41.836Z,6.57
2023-03-18T08:47:10.375Z,5.70
2023-03-18T08:49:39.405Z,20.27
2023-03-18T08:52:08.213Z,7.43
2023-03-18T08:54:37.506Z,6.10
2023-03-18T08:57:07.796Z,6.40
2023-03-18T08:59:36.684Z,6.43
2023-03-18T09:02:05.714Z,6.73
2023-03-18T09:04:34.165Z,6.70
2023-03-18T09:07:04.721Z,6.83
2023-03-18T09:09:43.151Z,7.03
2023-03-18T09:12:15.779Z,9.17
2023-03-18T09:14:44.850Z,9.30
2023-03-18T09:17:13.386Z,7.70
2023-03-18T09:19:41.976Z,6.33
2023-03-18T09:22:11.343Z,6.27
2023-03-18T09:24:40.653Z,6.90
2023-03-18T09:27:09.228Z,6.67
2023-03-18T09:29:39.631Z,6.63
2023-03-18T09:32:11.977Z,7.50
2023-03-18T09:34:40.440Z,7.30
2023-03-18T09:37:10.102Z,7.07
2023-03-18T09:39:38.719Z,6.50
2023-03-18T09:42:20.316Z,6.63
2023-03-18T09:44:55.265Z,6.83
2023-03-18T09:47:38.523Z,7.07
2023-03-18T09:50:17.653Z,6.73
2023-03-18T09:52:49.395Z,6.57
2023-03-18T09:55:24.297Z,7.03
2023-03-18T09:57:55.730Z,7.13
2023-03-18T10:00:29.525Z,7.13
2023-03-18T10:03:05.847Z,7.07
2023-03-18T10:05:48.372Z,9.37
2023-03-18T10:08:22.232Z,7.50
2023-03-18T10:10:52.114Z,7.17
2023-03-18T10:13:29.831Z,7.43
2023-03-18T10:16:03.744Z,7.50
2023-03-18T10:18:33.590Z,6.90
2023-03-18T10:21:13.161Z,6.90
2023-03-18T10:23:49.654Z,7.90
2023-03-18T10:26:22.577Z,7.40
2023-03-18T10:29:07.277Z,7.23
2023-03-18T10:31:46.764Z,7.80
2023-03-18T10:34:17.648Z,7.40
2023-03-18T10:36:51.896Z,7.27
2023-03-18T10:39:23.937Z,7.43
2023-03-18T10:41:53.551Z,7.30
2023-03-18T10:44:25.554Z,7.73
2023-03-18T10:47:00.642Z,11.23
2023-03-18T10:49:30.441Z,7.70
2023-03-18T10:52:06.024Z,7.83
2023-03-18T10:54:38.366Z,7.50
2023-03-18T10:57:06.987Z,7.13
2023-03-18T10:59:35.705Z,7.77
2023-03-18T11:02:07.960Z,8.10
2023-03-18T11:04:43.884Z,8.17
2023-03-18T11:07:17.374Z,7.87
2023-03-18T11:09:46.196Z,7.40
2023-03-18T11:12:19.633Z,7.27
2023-03-18T11:14:49.678Z,8.53
2023-03-18T11:17:24.310Z,8.70
2023-03-18T11:20:05.857Z,8.37
2023-03-18T11:22:34.689Z,8.37
2023-03-18T11:25:07.271Z,7.90
2023-03-18T11:27:39.423Z,8.50
2023-03-18T11:30:33.269Z,8.13
2023-03-18T11:33:08.159Z,8.20
2023-03-18T11:35:42.450Z,8.07
2023-03-18T11:38:17.398Z,8.40
2023-03-18T11:40:46.416Z,7.60
2023-03-18T11:43:20.168Z,8.60
2023-03-18T11:45:52.215Z,7.83
2023-03-18T11:48:30.461Z,8.07
2023-03-18T11:51:24.645Z,7.77
2023-03-18T11:54:04.581Z,8.33
2023-03-18T11:56:36.222Z,7.93
2023-03-18T11:59:35.012Z,8.10
2023-03-18T12:02:26.035Z,7.93
2023-03-18T12:05:08.617Z,8.00
2023-03-18T12:07:57.596Z,7.27
2023-03-18T12:10:29.728Z,8.00
2023-03-18T12:13:09.028Z,8.00
2023-03-18T12:15:43.844Z,7.77
2023-03-18T12:18:21.796Z,8.30
2023-03-18T12:20:53.203Z,8.60
2023-03-18T12:23:35.380Z,11.57
2023-03-18T12:26:06.273Z,10.60
2023-03-18T12:28:45.300Z,8.57
2023-03-18T12:31:46.994Z,7.73
2023-03-18T12:34:23.753Z,7.13
2023-03-18T12:37:07.430Z,7.90
2023-03-18T12:40:03.575Z,9.60
2023-03-18T12:42:44.661Z,8.10
2023-03-18T12:45:17.242Z,7.70
2023-03-18T12:47:50.585Z,7.93
2023-03-18T12:50:21.922Z,7.67
2023-03-18T12:52:56.113Z,7.80
2023-03-18T12:55:29.294Z,7.50
2023-03-18T12:58:00.485Z,8.00
2023-03-18T13:00:32.318Z,10.03
2023-03-18T13:03:07.438Z,15.97
2023-03-18T13:05:42.861Z,12.40
2023-03-18T13:08:41.758Z,8.17
2023-03-18T13:11:17.848Z,9.50
2023-03-18T13:13:51.397Z,8.33
2023-03-18T13:16:21.092Z,8.20
2023-03-18T13:18:52.196Z,7.77
2023-03-18T13:21:24.662Z,7.80
2023-03-18T13:24:09.500Z,8.10
2023-03-18T13:26:50.574Z,7.57
2023-03-18T13:29:25.886Z,8.23
2023-03-18T13:32:02.151Z,7.57
2023-03-18T13:34:52.727Z,7.80
2023-03-18T13:37:51.168Z,8.17
2023-03-18T13:40:58.053Z,7.80
2023-03-18T13:43:27.466Z,8.43
2023-03-18T13:45:57.045Z,8.07
2023-03-18T13:48:30.562Z,8.27
2023-03-18T13:50:59.910Z,7.67
2023-03-18T13:53:31.752Z,8.33
2023-03-18T13:56:06.626Z,8.00
2023-03-18T13:58:36.568Z,8.27
2023-03-18T14:01:33.994Z,7.87
2023-03-18T14:04:19.730Z,7.87
2023-03-18T14:06:55.362Z,8.17
2023-03-18T14:09:35.594Z,7.70
2023-03-18T14:12:18.848Z,8.57
2023-03-18T14:15:08.213Z,11.50
2023-03-18T14:17:46.098Z,7.40
2023-03-18T14:20:40.116Z,7.83
2023-03-18T14:23:39.751Z,7.80
2023-03-18T14:26:19.235Z,7.87
2023-03-18T14:28:51.793Z,7.90
2023-03-18T14:31:57.978Z,7.87
2023-03-18T14:34:30.925Z,8.07
2023-03-18T14:37:29.194Z,7.87
2023-03-18T14:40:03.549Z,9.50
2023-03-18T14:42:54.650Z,8.00
2023-03-18T14:45:27.565Z,7.83
2023-03-18T14:47:57.696Z,9.03
2023-03-18T14:50:33.811Z,8.47
2023-03-18T14:53:06.431Z,7.90
2023-03-18T14:55:41.696Z,8.03
2023-03-18T14:58:16.734Z,7.93
2023-03-18T15:00:47.984Z,7.77
2023-03-18T15:03:22.540Z,8.23
2023-03-18T15:05:51.316Z,10.17
2023-03-18T15:08:21.636Z,8.30
2023-03-18T15:10:51.698Z,7.97
2023-03-18T15:13:21.686Z,8.37
2023-03-18T15:15:54.951Z,7.70
2023-03-18T15:18:27.552Z,10.03
2023-03-18T15:21:01.302Z,11.13
2023-03-18T15:23:32.363Z,8.10
2023-03-18T15:26:01.112Z,8.50
2023-03-18T15:28:31.615Z,8.43
2023-03-18T15:31:05.119Z,8.60
2023-03-18T15:33:36.786Z,8.60
2023-03-18T15:36:07.885Z,8.30
2023-03-18T15:38:36.813Z,9.03
2023-03-18T15:41:07.356Z,8.40
2023-03-18T15:43:40.887Z,8.40
2023-03-18T15:46:17.713Z,8.07
2023-03-18T15:48:54.165Z,8.70
2023-03-18T15:51:28.781Z,8.87
2023-03-18T15:53:59.291Z,8.17
2023-03-18T15:56:30.338Z,8.80
2023-03-18T15:59:00.743Z,8.27
2023-03-18T16:01:30.881Z,11.80
2023-03-18T16:04:00.540Z,10.50
2023-03-18T16:06:29.007Z,14.40
2023-03-18T16:08:57.470Z,9.03
2023-03-18T16:11:26.203Z,8.17
2023-03-18T16:13:54.860Z,8.40
2023-03-18T16:16:28.636Z,9.10
2023-03-18T16:18:59.779Z,9.00
2023-03-18T16:21:28.287Z,8.53
2023-03-18T16:23:56.887Z,8.50
2023-03-18T16:26:25.418Z,9.23
2023-03-18T16:28:54.041Z,8.90
2023-03-18T16:31:22.491Z,8.20
2023-03-18T16:33:53.689Z,8.60
2023-03-18T16:36:28.328Z,12.57
2023-03-18T16:38:56.934Z,13.53
2023-03-18T16:41:25.915Z,10.50
2023-03-18T16:43:54.338Z,9.47
2023-03-18T16:46:24.046Z,9.23
2023-03-18T16:48:52.523Z,8.53
2023-03-18T16:51:21.422Z,10.57
2023-03-18T16:53:51.655Z,11.70
2023-03-18T16:56:22.061Z,24.87
2023-03-18T16:58:51.572Z,36.53
2023-03-18T17:01:21.498Z,21.63
2023-03-18T17:03:50.229Z,12.23
2023-03-18T17:06:18.841Z,9.70
2023-03-18T17:08:47.254Z,7.77
2023-03-18T17:11:19.337Z,7.47
2023-03-18T17:13:48.706Z,8.97
2023-03-18T17:16:20.196Z,10.57
2023-03-18T17:18:49.622Z,9.60
2023-03-18T17:21:18.112Z,12.47
2023-03-18T17:23:47.755Z,10.57
2023-03-18T17:26:18.188Z,10.27
2023-03-18T17:28:49.272Z,10.70
2023-03-18T17:31:20.213Z,10.97
2023-03-18T17:33:48.761Z,11.17
2023-03-18T17:36:17.460Z,10.53
2023-03-18T17:38:45.942Z,11.00
2023-03-18T17:41:19.415Z,12.03
2023-03-18T17:43:48.322Z,12.80
2023-03-18T17:46:17.038Z,11.90
2023-03-18T17:48:45.566Z,10.83
2023-03-18T17:51:16.652Z,10.60
2023-03-18T17:53:47.920Z,11.73
2023-03-18T17:56:19.314Z,10.27
2023-03-18T17:58:48.983Z,9.37
2023-03-18T18:01:19.703Z,10.30
2023-03-18T18:03:48.676Z,14.17
2023-03-18T18:06:19.103Z,13.37
2023-03-18T18:08:48.652Z,12.27
2023-03-18T18:11:21.282Z,13.73
2023-03-18T18:13:50.145Z,11.67
2023-03-18T18:16:18.890Z,10.80
2023-03-18T18:18:49.676Z,10.60
2023-03-18T18:21:21.354Z,11.90
2023-03-18T18:23:49.863Z,9.13
2023-03-18T18:26:21.342Z,10.13
2023-03-18T18:28:51.654Z,10.00
2023-03-18T18:31:21.746Z,11.83
2023-03-18T18:33:51.010Z,12.70
2023-03-18T18:36:19.519Z,11.47
2023-03-18T18:38:47.943Z,9.63
2023-03-18T18:41:16.375Z,10.60
2023-03-18T18:43:46.193Z,9.27
2023-03-18T18:46:15.219Z,9.53
2023-03-18T18:48:45.508Z,11.43
2023-03-18T18:51:17.401Z,13.13
2023-03-18T18:53:46.572Z,12.20
2023-03-18T18:56:18.576Z,12.13
2023-03-18T18:58:49.091Z,12.37
2023-03-18T19:01:18.379Z,14.93
2023-03-18T19:03:48.278Z,12.90
2023-03-18T19:06:25.828Z,15.23
2023-03-18T19:08:55.203Z,15.83
2023-03-18T19:11:24.676Z,14.07
2023-03-18T19:13:55.132Z,21.50
2023-03-18T19:16:30.152Z,23.03
2023-03-18T19:18:59.079Z,14.13
2023-03-18T19:21:27.870Z,11.83
2023-03-18T19:23:58.251Z,15.30
2023-03-18T19:26:27.171Z,19.13
2023-03-18T19:28:59.707Z,25.87
2023-03-18T19:31:31.275Z,24.73
2023-03-18T19:34:00.961Z,29.97
2023-03-18T19:36:31.483Z,28.60
2023-03-18T19:39:01.372Z,43.57
2023-03-18T19:41:30.452Z,25.43
2023-03-18T19:44:04.092Z,18.73
2023-03-18T19:46:37.024Z,19.43
2023-03-18T19:49:12.177Z,19.00
2023-03-18T19:51:40.609Z,19.57
2023-03-18T19:54:28.202Z,15.50
2023-03-18T19:56:57.401Z,13.87
2023-03-18T19:59:36.066Z,13.10
2023-03-18T20:02:21.962Z,14.70
2023-03-18T20:04:51.553Z,15.60
2023-03-18T20:07:20.849Z,20.23
2023-03-18T20:09:49.752Z,15.63
2023-03-18T20:12:23.317Z,16.10
2023-03-18T20:14:53.427Z,15.83
2023-03-18T20:17:34.399Z,15.07
2023-03-18T20:20:03.203Z,14.10
2023-03-18T20:22:33.683Z,14.63
2023-03-18T20:25:03.003Z,12.13
2023-03-18T20:27:31.708Z,10.73
2023-03-18T20:30:02.068Z,13.27
2023-03-18T20:32:30.593Z,16.27
2023-03-18T20:34:59.530Z,17.30
2023-03-18T20:37:33.583Z,15.00
2023-03-18T20:40:02.429Z,14.33
2023-03-18T20:42:31.040Z,15.43
2023-03-18T20:45:00.919Z,12.73
2023-03-18T20:47:29.604Z,11.30
2023-03-18T20:49:58.184Z,11.20
2023-03-18T20:52:29.147Z,14.20
2023-03-18T20:54:58.166Z,19.73
2023-03-18T20:57:27.473Z,19.17
2023-03-18T20:59:56.538Z,17.00
2023-03-18T21:02:33.976Z,14.70
2023-03-18T21:05:04.178Z,14.57
2023-03-18T21:07:32.706Z,14.47
2023-03-18T21:10:01.270Z,25.27
2023-03-18T21:12:29.897Z,26.40
2023-03-18T21:14:58.341Z,22.10
2023-03-18T21:17:28.333Z,20.23
2023-03-18T21:20:11.157Z,19.43
2023-03-18T21:22:47.690Z,19.63
2023-03-18T21:25:18.669Z,19.87
2023-03-18T21:27:47.391Z,19.73
2023-03-18T21:30:17.224Z,23.23
2023-03-18T21:32:46.298Z,26.70
2023-03-18T21:35:21.760Z,25.23
2023-03-18T21:37:50.652Z,19.00
2023-03-18T21:40:21.333Z,18.03
2023-03-18T21:42:50.345Z,15.93
2023-03-18T21:45:21.617Z,15.00
2023-03-18T21:47:50.051Z,14.77
2023-03-18T21:50:23.969Z,14.50
2023-03-18T21:52:52.944Z,17.40
2023-03-18T21:55:22.290Z,17.03
2023-03-18T21:57:50.930Z,17.30
2023-03-18T22:00:21.120Z,17.60
2023-03-18T22:02:50.115Z,16.63
2023-03-18T22:05:20.073Z,14.90
2023-03-18T22:07:50.543Z,14.17
2023-03-18T22:10:20.642Z,14.13
2023-03-18T22:12:49.136Z,13.37
2023-03-18T22:15:35.564Z,15.03
2023-03-18T22:18:04.497Z,15.10
2023-03-18T22:20:34.728Z,15.33
2023-03-18T22:23:16.408Z,13.70
2023-03-18T22:25:46.016Z,13.10
2023-03-18T22:28:14.777Z,12.60
2023-03-18T22:30:44.479Z,13.00
2023-03-18T22:33:21.769Z,13.53
2023-03-18T22:35:50.380Z,13.57
2023-03-18T22:38:21.961Z,12.33
2023-03-18T22:40:52.528Z,12.20
2023-03-18T22:43:30.064Z,12.37
2023-03-18T22:45:58.781Z,13.80
2023-03-18T22:48:27.481Z,13.63
2023-03-18T22:50:56.244Z,11.70
2023-03-18T22:53:28.767Z,11.20
2023-03-18T22:55:57.706Z,10.97
2023-03-18T22:58:28.193Z,11.07
2023-03-18T23:00:57.279Z,9.90
2023-03-18T23:03:29.301Z,9.83
2023-03-18T23:05:59.018Z,9.23
2023-03-18T23:08:28.893Z,9.40
2023-03-18T23:10:58.181Z,8.83
2023-03-18T23:13:29.164Z,8.77
2023-03-18T23:15:58.163Z,8.77
2023-03-18T23:18:26.859Z,9.33
2023-03-18T23:20:55.531Z,10.13
2023-03-18T23:23:24.059Z,9.47
2023-03-18T23:25:53.988Z,9.40
2023-03-18T23:28:22.433Z,9.37
2023-03-18T23:30:52.990Z,8.63
2023-03-18T23:33:21.539Z,8.57
2023-03-18T23:35:50.042Z,9.97
2023-03-18T23:38:18.928Z,9.03
2023-03-18T23:40:47.585Z,9.80
2023-03-18T23:43:17.507Z,8.67
2023-03-18T23:45:46.267Z,8.77
2023-03-18T23:48:14.771Z,8.73
2023-03-18T23:50:43.235Z,7.80
2023-03-18T23:53:11.887Z,8.73
2023-03-18T23:55:40.385Z,8.17
2023-03-18T23:58:08.813Z,8.63
